メインページ
METAR-TAF:

METAR-TAF

空港 :

ダブリン, アイルランド

ダブリン空港

緯度: 53-26N, 経度: 006-15W, 海抜: 68m

現時点の気象観測

当レポートは28分前の11:30(UTC)に作成
東/北東の風 11kt
気温 9°C
湿度 66%
気圧 1033 hPa
視程10km以上
高度1800ftの雲はほとんどない

METAR: EIDW 241130Z 06011KT 9999 FEW018 09/03 Q1033 NOSIG

時間: 11:58 (11:58 UTC)

予報

当レポートは58分前の11:00(UTC)に作成
予報は24日の 12時(UTC)から 25日の 12時(UTC)まで有効
東/北東の風 12kt
視程10km以上
高度2000ftの雲はほとんどない
24日の 21時(UTC)から 24日の 24時(UTC)まで徐々に
東/北東の風 6kt

TAF: EIDW 241100Z 2412/2512 06012KT 9999 FEW020 BECMG 2421/2424 06006KT

4,000以上の空港の気象観測と天気予報(METAR報とTAF報)

利用可能な観測所は地図上に黄色い丸と赤い丸で示す。

丸の上にカーソルを重ねると観測所名を参照できる。

次にクリックすると気象観測と天気予報を参照できる。

マップの切り替え:黒色「×」印の緑ボタンをクリックして拡大、「-」印の緑ボタンをクリックして縮小、緑色の三角印をクリックして隣りの地図に切り替え


METAR-TAF: